createdAt,value
2018-11-25T00:00:06.084Z,26.30
2018-11-25T00:02:37.497Z,25.20
2018-11-25T00:05:09.692Z,24.60
2018-11-25T00:07:39.584Z,25.10
2018-11-25T00:10:10.927Z,25.80
2018-11-25T00:12:42.520Z,26.40
2018-11-25T00:15:12.546Z,26.70
2018-11-25T00:17:44.348Z,26.60
2018-11-25T00:20:26.479Z,25.70
2018-11-25T00:22:57.809Z,24.20
2018-11-25T00:25:27.673Z,23.10
2018-11-25T00:27:58.845Z,22.50
2018-11-25T00:30:29.173Z,22.10
2018-11-25T00:32:59.349Z,22.00
2018-11-25T00:35:29.186Z,21.90
2018-11-25T00:38:00.493Z,21.80
2018-11-25T00:40:32.907Z,22.60
2018-11-25T00:43:02.725Z,23.70
2018-11-25T00:45:34.029Z,24.30
2018-11-25T00:48:05.470Z,24.50
2018-11-25T00:50:36.822Z,24.80
2018-11-25T00:53:08.429Z,25.10
2018-11-25T00:55:40.085Z,25.50
2018-11-25T00:58:11.551Z,25.80
2018-11-25T01:00:43.099Z,26.00
2018-11-25T01:03:14.613Z,25.40
2018-11-25T01:05:45.755Z,24.10
2018-11-25T01:08:15.601Z,23.20
2018-11-25T01:10:48.175Z,22.20
2018-11-25T01:13:19.768Z,21.70
2018-11-25T01:15:51.389Z,21.40
2018-11-25T01:18:23.131Z,21.10
2018-11-25T01:20:53.081Z,20.90
2018-11-25T01:23:24.601Z,21.40
2018-11-25T01:25:56.399Z,22.20
2018-11-25T01:28:28.045Z,22.70
2018-11-25T01:30:57.909Z,23.00
2018-11-25T01:33:29.519Z,23.10
2018-11-25T01:36:01.459Z,23.30
2018-11-25T01:38:31.410Z,23.50
2018-11-25T01:41:02.865Z,23.60
2018-11-25T01:43:34.271Z,24.00
2018-11-25T01:46:06.081Z,24.20
2018-11-25T01:48:36.895Z,24.50
2018-11-25T01:51:08.713Z,24.80
2018-11-25T01:53:40.420Z,24.50
2018-11-25T01:56:11.963Z,23.60
2018-11-25T01:58:43.639Z,24.00
2018-11-25T02:01:13.520Z,24.20
2018-11-25T02:03:44.915Z,24.90
2018-11-25T02:06:16.533Z,25.20
2018-11-25T02:08:48.470Z,25.60
2018-11-25T02:11:20.371Z,24.80
2018-11-25T02:13:51.586Z,23.70
2018-11-25T02:16:23.007Z,22.70
2018-11-25T02:18:54.313Z,22.00
2018-11-25T02:21:25.670Z,21.60
2018-11-25T02:23:55.549Z,21.50
2018-11-25T02:26:27.163Z,22.00
2018-11-25T02:31:33.978Z,22.40
2018-11-25T02:34:05.427Z,23.50
2018-11-25T02:36:36.853Z,24.00
2018-11-25T02:39:09.521Z,24.30
2018-11-25T02:41:40.905Z,24.60
2018-11-25T02:44:12.292Z,24.80
2018-11-25T02:46:43.555Z,25.10
2018-11-25T02:49:14.819Z,25.30
2018-11-25T02:51:45.869Z,25.40
2018-11-25T02:54:17.689Z,24.60
2018-11-25T02:56:48.951Z,23.40
2018-11-25T02:59:20.539Z,22.70
2018-11-25T03:01:51.919Z,22.00
2018-11-25T03:04:23.751Z,21.50
2018-11-25T03:06:55.013Z,20.90
2018-11-25T03:09:26.275Z,20.50
2018-11-25T03:11:57.435Z,20.60
2018-11-25T03:14:28.769Z,21.80
2018-11-25T03:17:00.062Z,22.30
2018-11-25T03:19:31.379Z,22.60
2018-11-25T03:22:02.711Z,22.90
2018-11-25T03:24:33.955Z,23.20
2018-11-25T03:27:05.003Z,23.20
2018-11-25T03:29:37.355Z,23.40
2018-11-25T03:32:08.931Z,23.80
2018-11-25T03:34:40.715Z,24.00
2018-11-25T03:37:12.029Z,24.00
2018-11-25T03:39:43.392Z,23.20
2018-11-25T03:42:14.908Z,23.20
2018-11-25T03:44:46.025Z,23.80
2018-11-25T03:47:17.828Z,24.40
2018-11-25T03:49:48.905Z,24.90
2018-11-25T03:52:20.558Z,25.10
2018-11-25T03:54:51.869Z,24.60
2018-11-25T03:57:23.305Z,23.30
2018-11-25T03:59:54.756Z,22.30
2018-11-25T04:02:24.970Z,22.60
2018-11-25T04:04:56.721Z,23.70
2018-11-25T04:07:27.927Z,24.50
2018-11-25T04:09:59.134Z,24.90
2018-11-25T04:12:28.945Z,25.00
2018-11-25T04:15:00.513Z,24.40
2018-11-25T04:17:31.828Z,23.30
2018-11-25T04:20:03.696Z,22.20
2018-11-25T04:22:34.896Z,21.30
2018-11-25T04:25:06.367Z,20.70
2018-11-25T04:27:37.945Z,20.40
2018-11-25T04:30:17.872Z,20.20
2018-11-25T04:32:48.065Z,20.30
2018-11-25T04:35:17.763Z,21.30
2018-11-25T04:37:47.532Z,22.20
2018-11-25T04:40:19.435Z,22.70
2018-11-25T04:42:50.730Z,22.90
2018-11-25T04:45:20.559Z,23.10
2018-11-25T04:47:51.835Z,23.30
2018-11-25T04:50:23.279Z,23.70
2018-11-25T04:52:54.636Z,23.90
2018-11-25T04:55:25.227Z,24.30
2018-11-25T04:57:56.669Z,24.60
2018-11-25T05:00:27.902Z,24.40
2018-11-25T05:02:58.989Z,23.60
2018-11-25T05:05:30.567Z,23.10
2018-11-25T05:08:00.311Z,23.90
2018-11-25T05:10:32.007Z,24.80
2018-11-25T05:13:03.638Z,25.30
2018-11-25T05:15:34.979Z,25.70
2018-11-25T05:18:06.390Z,25.50
2018-11-25T05:20:36.898Z,24.80
2018-11-25T05:23:08.183Z,23.70
2018-11-25T05:25:39.509Z,23.00
2018-11-25T05:28:10.719Z,22.60
2018-11-25T05:30:42.499Z,22.10
2018-11-25T05:33:13.691Z,21.60
2018-11-25T05:35:45.233Z,21.40
2018-11-25T05:38:16.532Z,20.90
2018-11-25T05:40:48.043Z,21.70
2018-11-25T05:43:19.601Z,22.30
2018-11-25T05:45:50.930Z,23.30
2018-11-25T05:48:22.049Z,23.20
2018-11-25T05:50:53.517Z,23.40
2018-11-25T05:53:24.221Z,23.50
2018-11-25T05:55:56.095Z,24.80
2018-11-25T05:58:27.305Z,24.70
2018-11-25T06:00:57.749Z,24.90
2018-11-25T06:03:29.289Z,24.60
2018-11-25T06:06:00.493Z,25.90
2018-11-25T06:08:30.225Z,27.40
2018-11-25T06:11:02.190Z,29.00
2018-11-25T06:13:33.780Z,28.90
2018-11-25T06:16:05.183Z,27.50
2018-11-25T06:18:36.501Z,26.50
2018-11-25T06:21:07.510Z,25.80
2018-11-25T06:23:38.974Z,25.20
2018-11-25T06:26:09.051Z,24.60
2018-11-25T06:28:40.227Z,24.00
2018-11-25T06:31:11.578Z,23.60
2018-11-25T06:33:42.885Z,23.60
2018-11-25T06:36:14.193Z,23.20
2018-11-25T06:38:45.049Z,22.90
2018-11-25T06:41:16.453Z,22.40
2018-11-25T06:43:47.913Z,22.00
2018-11-25T06:46:19.347Z,21.70
2018-11-25T06:48:54.962Z,21.40
2018-11-25T06:51:22.489Z,21.00
2018-11-25T06:53:52.325Z,20.60
2018-11-25T06:56:27.382Z,20.40
2018-11-25T06:58:52.769Z,20.20
2018-11-25T07:01:24.181Z,19.80
2018-11-25T07:03:55.646Z,19.60
2018-11-25T07:06:27.515Z,19.10
2018-11-25T07:08:59.059Z,19.80
2018-11-25T07:11:29.091Z,20.60
2018-11-25T07:14:00.594Z,21.20
2018-11-25T07:16:32.005Z,21.70
2018-11-25T07:19:01.865Z,21.80
2018-11-25T07:21:33.533Z,21.50
2018-11-25T07:24:04.773Z,21.10
2018-11-25T07:26:34.637Z,21.50
2018-11-25T07:29:05.851Z,24.00
2018-11-25T07:31:35.617Z,28.00
2018-11-25T07:34:07.039Z,28.60
2018-11-25T07:36:38.809Z,27.50
2018-11-25T07:39:10.217Z,25.90
2018-11-25T07:41:41.858Z,24.10
2018-11-25T07:44:13.361Z,22.30
2018-11-25T07:46:45.343Z,21.80
2018-11-25T07:49:16.796Z,21.70
2018-11-25T07:51:48.347Z,21.90
2018-11-25T07:54:19.677Z,22.20
2018-11-25T07:56:49.533Z,22.70
2018-11-25T07:59:21.503Z,22.90
2018-11-25T08:01:53.254Z,22.20
2018-11-25T08:04:23.145Z,21.80
2018-11-25T08:06:54.709Z,22.70
2018-11-25T08:09:24.782Z,23.00
2018-11-25T08:11:56.332Z,23.70
2018-11-25T08:14:26.469Z,25.10
2018-11-25T08:16:57.851Z,25.30
2018-11-25T08:19:29.919Z,24.00
2018-11-25T08:22:01.609Z,23.20
2018-11-25T08:24:33.069Z,23.30
2018-11-25T08:27:03.202Z,23.50
2018-11-25T08:29:33.103Z,24.00
2018-11-25T08:32:03.325Z,24.90
2018-11-25T08:34:33.745Z,25.40
2018-11-25T08:37:03.965Z,24.90
2018-11-25T08:39:34.036Z,24.20
2018-11-25T08:47:41.860Z,24.70
2018-11-25T08:52:53.981Z,25.10
2018-11-25T08:55:24.221Z,25.70
2018-11-25T08:57:54.089Z,26.20
2018-11-25T09:01:27.884Z,26.00
2018-11-25T09:03:57.675Z,24.90
2018-11-25T09:06:27.837Z,24.70
2018-11-25T09:08:57.675Z,24.90
2018-11-25T09:11:27.531Z,25.50
2018-11-25T09:13:57.463Z,25.60
2018-11-25T09:16:27.260Z,24.90
2018-11-25T09:18:57.314Z,24.40
2018-11-25T09:21:27.237Z,24.40
2018-11-25T09:26:37.351Z,25.00
2018-11-25T09:29:09.134Z,25.50
2018-11-25T09:31:40.907Z,26.10
2018-11-25T09:34:12.283Z,26.40
2018-11-25T09:36:43.254Z,26.80
2018-11-25T09:39:15.024Z,28.40
2018-11-25T09:41:46.994Z,29.40
2018-11-25T09:44:18.640Z,29.40
2018-11-25T09:46:50.496Z,29.50
2018-11-25T09:49:22.198Z,29.60
2018-11-25T09:51:53.856Z,29.90
2018-11-25T09:54:24.750Z,30.80
2018-11-25T09:56:56.262Z,31.60
2018-11-25T09:59:28.271Z,32.70
2018-11-25T10:01:59.726Z,33.60
2018-11-25T10:04:31.268Z,33.80
2018-11-25T10:07:02.947Z,33.20
2018-11-25T10:09:34.474Z,32.20
2018-11-25T10:12:06.335Z,31.30
2018-11-25T10:14:37.937Z,31.10
2018-11-25T10:17:09.484Z,29.50
2018-11-25T10:19:41.298Z,28.60
2018-11-25T10:22:12.902Z,28.50
2018-11-25T10:24:44.414Z,28.80
2018-11-25T10:27:32.211Z,28.30
2018-11-25T10:30:03.898Z,28.30
2018-11-25T10:32:35.562Z,29.00
2018-11-25T10:35:08.126Z,29.90
2018-11-25T10:37:40.115Z,30.10
2018-11-25T10:40:12.392Z,29.80
2018-11-25T10:42:43.820Z,29.20
2018-11-25T10:45:32.594Z,28.80
2018-11-25T10:48:04.256Z,28.70
2018-11-25T10:50:34.211Z,28.30
2018-11-25T10:53:06.287Z,27.60
2018-11-25T10:55:38.176Z,27.20
2018-11-25T10:58:10.922Z,26.90
2018-11-25T11:00:57.223Z,27.10
2018-11-25T11:04:03.131Z,27.60
2018-11-25T11:06:53.454Z,28.20
2018-11-25T11:09:25.520Z,28.20
2018-11-25T11:11:57.236Z,27.90
2018-11-25T11:14:28.996Z,28.00
2018-11-25T11:17:00.858Z,28.40
2018-11-25T11:19:32.500Z,29.60
2018-11-25T11:22:04.286Z,32.10
2018-11-25T11:24:36.237Z,33.00
2018-11-25T11:27:07.874Z,33.30
2018-11-25T11:29:39.391Z,33.20
2018-11-25T11:32:11.631Z,32.70
2018-11-25T11:34:43.366Z,32.80
2018-11-25T11:37:15.034Z,33.20
2018-11-25T11:39:46.631Z,32.90
2018-11-25T11:42:18.030Z,32.90
2018-11-25T11:44:49.512Z,33.30
2018-11-25T11:47:21.176Z,33.80
2018-11-25T11:49:52.674Z,34.00
2018-11-25T11:52:24.159Z,34.00
2018-11-25T11:54:55.964Z,33.90
2018-11-25T11:57:26.586Z,34.10
2018-11-25T11:59:58.492Z,34.00
2018-11-25T12:02:31.697Z,34.30
2018-11-25T12:05:02.674Z,34.50
2018-11-25T12:07:34.673Z,34.70
2018-11-25T12:10:05.452Z,34.50
2018-11-25T12:12:36.098Z,32.70
2018-11-25T12:15:09.599Z,32.20
2018-11-25T12:17:40.026Z,34.30
2018-11-25T12:20:27.503Z,34.20
2018-11-25T12:22:59.576Z,34.90
2018-11-25T12:25:31.445Z,35.30
2018-11-25T12:28:03.252Z,36.20
2018-11-25T12:30:35.712Z,36.80
2018-11-25T12:33:07.588Z,37.10
2018-11-25T12:35:39.816Z,37.80
2018-11-25T12:38:11.550Z,37.20
2018-11-25T12:40:42.934Z,37.30
2018-11-25T12:43:15.508Z,37.50
2018-11-25T12:45:47.198Z,37.70
2018-11-25T12:48:19.016Z,38.20
2018-11-25T12:50:51.165Z,38.50
2018-11-25T12:53:22.550Z,38.70
2018-11-25T12:55:54.554Z,38.90
2018-11-25T12:58:26.246Z,39.00
2018-11-25T13:00:57.934Z,39.40
2018-11-25T13:03:29.736Z,40.80
2018-11-25T13:06:01.513Z,41.80
2018-11-25T13:08:32.648Z,41.80
2018-11-25T13:11:04.406Z,41.20
2018-11-25T13:13:36.485Z,40.40
2018-11-25T13:16:08.142Z,39.80
2018-11-25T13:18:39.505Z,38.50
2018-11-25T13:21:11.792Z,38.30
2018-11-25T13:23:43.509Z,38.30
2018-11-25T13:26:15.080Z,38.60
2018-11-25T13:28:46.588Z,38.60
2018-11-25T13:31:18.628Z,38.60
2018-11-25T13:33:50.358Z,38.90
2018-11-25T13:36:21.925Z,39.80
2018-11-25T13:38:53.434Z,40.10
2018-11-25T13:41:25.160Z,39.40
2018-11-25T13:43:56.616Z,38.90
2018-11-25T13:46:28.240Z,38.10
2018-11-25T13:48:59.954Z,37.70
2018-11-25T13:51:32.333Z,37.40
2018-11-25T13:54:04.661Z,37.30
2018-11-25T13:56:36.420Z,37.00
2018-11-25T13:59:07.878Z,37.00
2018-11-25T14:01:39.480Z,36.80
2018-11-25T14:04:10.970Z,36.60
2018-11-25T14:06:42.182Z,36.90
2018-11-25T14:09:17.060Z,38.10
2018-11-25T14:11:48.544Z,37.20
2018-11-25T14:14:20.823Z,36.70
2018-11-25T14:16:52.679Z,36.20
2018-11-25T14:19:24.322Z,36.10
2018-11-25T14:21:56.148Z,36.40
2018-11-25T14:24:27.814Z,36.70
2018-11-25T14:27:02.413Z,37.30
2018-11-25T14:29:33.783Z,37.80
2018-11-25T14:32:05.840Z,38.50
2018-11-25T14:34:37.337Z,39.90
2018-11-25T14:37:09.607Z,39.80
2018-11-25T14:39:41.672Z,40.80
2018-11-25T14:42:14.082Z,42.00
2018-11-25T14:44:45.685Z,42.80
2018-11-25T14:47:17.654Z,42.70
2018-11-25T14:49:49.160Z,42.20
2018-11-25T14:52:20.840Z,41.50
2018-11-25T14:54:52.657Z,41.20
2018-11-25T14:57:24.816Z,41.10
2018-11-25T14:59:56.419Z,39.60
2018-11-25T15:02:28.472Z,38.80
2018-11-25T15:04:59.910Z,38.50
2018-11-25T15:07:31.731Z,38.30
2018-11-25T15:10:04.400Z,37.90
2018-11-25T15:12:37.002Z,37.60
2018-11-25T15:15:11.051Z,37.80
2018-11-25T15:17:42.842Z,37.70
2018-11-25T15:20:14.819Z,37.70
2018-11-25T15:22:49.190Z,37.70
2018-11-25T15:25:21.610Z,37.70
2018-11-25T15:27:53.345Z,37.30
2018-11-25T15:30:25.014Z,37.30
2018-11-25T15:32:56.490Z,37.20
2018-11-25T15:35:28.369Z,37.20
2018-11-25T15:38:00.121Z,37.20
2018-11-25T15:40:34.608Z,37.50
2018-11-25T15:43:05.150Z,38.60
2018-11-25T15:45:36.760Z,39.90
2018-11-25T15:48:18.556Z,40.80
2018-11-25T15:50:50.283Z,41.50
2018-11-25T15:53:22.181Z,41.70
2018-11-25T15:55:54.900Z,41.90
2018-11-25T15:58:26.970Z,42.00
2018-11-25T16:00:58.904Z,41.70
2018-11-25T16:03:30.714Z,41.20
2018-11-25T16:06:07.880Z,41.10
2018-11-25T16:08:39.748Z,40.90
2018-11-25T16:11:11.132Z,40.50
2018-11-25T16:13:42.592Z,39.30
2018-11-25T16:16:14.531Z,38.00
2018-11-25T16:18:46.265Z,38.00
2018-11-25T16:21:17.934Z,38.30
2018-11-25T16:23:50.622Z,38.80
2018-11-25T16:26:26.340Z,39.10
2018-11-25T16:28:58.239Z,38.90
2018-11-25T16:31:29.883Z,38.60
2018-11-25T16:34:01.607Z,38.20
2018-11-25T16:36:33.301Z,38.20
2018-11-25T16:39:03.577Z,38.30
2018-11-25T16:41:34.598Z,38.50
2018-11-25T16:44:05.878Z,38.10
2018-11-25T16:46:38.329Z,37.50
2018-11-25T16:49:10.640Z,37.20
2018-11-25T16:51:42.326Z,36.40
2018-11-25T16:54:14.001Z,37.10
2018-11-25T16:56:46.115Z,37.30
2018-11-25T16:59:17.516Z,38.20
2018-11-25T17:01:49.132Z,37.20
2018-11-25T17:04:21.120Z,36.90
2018-11-25T17:06:53.999Z,37.80
2018-11-25T17:09:28.768Z,38.30
2018-11-25T17:12:00.600Z,38.50
2018-11-25T17:14:33.947Z,38.30
2018-11-25T17:17:03.292Z,37.50
2018-11-25T17:19:34.371Z,37.70
2018-11-25T17:22:06.699Z,37.70
2018-11-25T17:24:36.695Z,38.10
2018-11-25T17:27:08.098Z,38.90
2018-11-25T17:29:38.554Z,39.60
2018-11-25T17:32:10.200Z,40.90
2018-11-25T17:34:41.862Z,42.50
2018-11-25T17:37:12.184Z,43.60
2018-11-25T17:39:44.270Z,43.60
2018-11-25T17:42:15.659Z,42.80
2018-11-25T17:44:47.634Z,42.10
2018-11-25T17:47:19.631Z,41.40
2018-11-25T17:49:49.750Z,41.00
2018-11-25T17:52:21.465Z,41.00
2018-11-25T17:54:53.564Z,41.00
2018-11-25T17:57:25.642Z,41.00
2018-11-25T17:59:57.394Z,41.20
2018-11-25T18:02:27.630Z,41.20
2018-11-25T18:04:59.160Z,41.80
2018-11-25T18:07:29.437Z,41.30
2018-11-25T18:10:00.953Z,41.60
2018-11-25T18:12:33.126Z,42.50
2018-11-25T18:15:03.185Z,43.30
2018-11-25T18:17:34.678Z,43.50
2018-11-25T18:20:05.086Z,43.40
2018-11-25T18:22:37.268Z,43.10
2018-11-25T18:25:09.526Z,42.50
2018-11-25T18:27:39.710Z,42.80
2018-11-25T18:30:12.430Z,41.60
2018-11-25T18:32:43.115Z,40.80
2018-11-25T18:35:15.080Z,41.30
2018-11-25T18:37:47.252Z,41.50
2018-11-25T18:40:17.890Z,41.60
2018-11-25T18:42:50.244Z,41.70
2018-11-25T18:45:22.610Z,41.70
2018-11-25T18:47:53.902Z,41.70
2018-11-25T18:50:25.878Z,41.80
2018-11-25T18:52:57.344Z,41.80
2018-11-25T18:55:27.922Z,41.90
2018-11-25T18:57:59.625Z,42.00
2018-11-25T19:00:36.037Z,42.00
2018-11-25T19:03:11.414Z,42.10
2018-11-25T19:05:43.647Z,42.20
2018-11-25T19:08:16.228Z,42.10
2018-11-25T19:10:48.163Z,41.70
2018-11-25T19:13:20.386Z,41.60
2018-11-25T19:16:06.211Z,41.40
2018-11-25T19:18:38.392Z,41.10
2018-11-25T19:21:10.745Z,40.80
2018-11-25T19:23:43.064Z,40.50
2018-11-25T19:26:14.546Z,40.30
2018-11-25T19:28:46.423Z,40.40
2018-11-25T19:31:18.789Z,40.50
2018-11-25T19:33:51.100Z,40.50
2018-11-25T19:36:22.669Z,40.40
2018-11-25T19:38:55.005Z,40.70
2018-11-25T19:41:26.799Z,40.90
2018-11-25T19:43:59.040Z,41.10
2018-11-25T19:46:30.700Z,41.60
2018-11-25T19:49:02.557Z,42.00
2018-11-25T19:51:34.713Z,42.80
2018-11-25T19:54:06.964Z,43.80
2018-11-25T19:56:39.484Z,44.30
2018-11-25T19:59:10.256Z,44.40
2018-11-25T20:01:42.046Z,44.50
2018-11-25T20:04:12.838Z,45.50
2018-11-25T20:06:44.362Z,44.80
2018-11-25T20:09:14.761Z,44.50
2018-11-25T20:11:46.348Z,44.40
2018-11-25T20:14:18.856Z,44.30
2018-11-25T20:17:07.411Z,44.10
2018-11-25T20:19:38.690Z,44.00
2018-11-25T20:22:26.623Z,43.80
2018-11-25T20:24:58.020Z,43.80
2018-11-25T20:27:46.420Z,43.90
2018-11-25T20:30:18.874Z,43.90
2018-11-25T20:33:07.464Z,43.80
2018-11-25T20:35:40.093Z,43.70
2018-11-25T20:38:28.964Z,43.70
2018-11-25T20:41:00.993Z,43.30
2018-11-25T20:43:32.903Z,42.90
2018-11-25T20:46:22.973Z,42.70
2018-11-25T20:48:54.774Z,42.50
2018-11-25T20:51:43.982Z,42.50
2018-11-25T20:54:15.764Z,42.50
2018-11-25T20:56:47.273Z,42.20
2018-11-25T20:59:18.989Z,41.70
2018-11-25T21:01:50.709Z,41.60
2018-11-25T21:04:22.306Z,42.30
2018-11-25T21:06:54.008Z,41.50
2018-11-25T21:09:26.263Z,41.60
2018-11-25T21:11:58.386Z,41.80
2018-11-25T21:14:29.848Z,42.10
2018-11-25T21:17:01.189Z,42.30
2018-11-25T21:19:32.920Z,42.80
2018-11-25T21:22:04.686Z,42.90
2018-11-25T21:24:36.561Z,43.10
2018-11-25T21:27:08.415Z,43.30
2018-11-25T21:29:40.129Z,43.50
2018-11-25T21:32:12.087Z,43.50
2018-11-25T21:34:43.711Z,43.70
2018-11-25T21:37:13.690Z,43.30
2018-11-25T21:39:45.373Z,43.30
2018-11-25T21:42:16.733Z,43.20
2018-11-25T21:44:49.037Z,43.20
2018-11-25T21:47:20.412Z,43.50
2018-11-25T21:49:51.938Z,44.00
2018-11-25T21:52:23.377Z,44.20
2018-11-25T21:54:54.859Z,44.00
2018-11-25T21:57:25.532Z,43.50
2018-11-25T21:59:57.238Z,42.60
2018-11-25T22:02:27.879Z,42.00
2018-11-25T22:04:59.972Z,41.80
2018-11-25T22:07:31.394Z,41.60
2018-11-25T22:10:03.179Z,41.70
2018-11-25T22:12:34.842Z,41.70
2018-11-25T22:15:07.142Z,41.70
2018-11-25T22:17:38.710Z,41.50
2018-11-25T22:20:11.265Z,41.50
2018-11-25T22:22:42.876Z,41.10
2018-11-25T22:25:14.770Z,40.40
2018-11-25T22:27:46.208Z,40.30
2018-11-25T22:30:34.135Z,40.40
2018-11-25T22:33:04.654Z,40.30
2018-11-25T22:35:35.062Z,40.00
2018-11-25T22:38:07.101Z,40.20
2018-11-25T22:40:38.065Z,40.40
2018-11-25T22:43:24.964Z,40.80
2018-11-25T22:45:55.822Z,41.60
2018-11-25T22:48:27.230Z,42.60
2018-11-25T22:50:58.281Z,43.20
2018-11-25T22:53:29.586Z,43.50
2018-11-25T22:56:00.566Z,43.50
2018-11-25T22:58:31.858Z,43.40
2018-11-25T23:01:02.733Z,43.30
2018-11-25T23:03:34.474Z,43.20
2018-11-25T23:06:22.803Z,43.20
2018-11-25T23:08:54.453Z,43.10
2018-11-25T23:11:25.934Z,42.50
2018-11-25T23:13:57.580Z,42.00
2018-11-25T23:16:27.406Z,41.50
2018-11-25T23:18:59.442Z,41.20
2018-11-25T23:21:30.766Z,40.80
2018-11-25T23:24:03.650Z,40.40
2018-11-25T23:26:35.440Z,39.90
2018-11-25T23:29:06.914Z,39.70
2018-11-25T23:31:38.256Z,39.50
2018-11-25T23:34:09.927Z,39.40
2018-11-25T23:36:41.521Z,39.30
2018-11-25T23:39:13.157Z,39.20
2018-11-25T23:41:44.726Z,39.20
2018-11-25T23:44:16.680Z,39.80
2018-11-25T23:46:48.378Z,40.50
2018-11-25T23:49:19.554Z,40.90
2018-11-25T23:51:51.103Z,41.00
2018-11-25T23:54:22.766Z,41.20
2018-11-25T23:56:54.101Z,41.10
2018-11-25T23:59:25.694Z,41.10
